createdAt,value
2022-09-04T00:00:09.261Z,250.03
2022-09-04T00:02:59.718Z,222.47
2022-09-04T00:05:32.648Z,243.33
2022-09-04T00:08:15.454Z,204.60
2022-09-04T00:10:52.455Z,223.83
2022-09-04T00:13:24.650Z,235.70
2022-09-04T00:15:59.613Z,211.13
2022-09-04T00:18:36.668Z,134.33
2022-09-04T00:21:14.009Z,86.23
2022-09-04T00:23:49.833Z,108.73
2022-09-04T00:26:40.166Z,88.50
2022-09-04T00:29:21.238Z,31.93
2022-09-04T00:31:55.297Z,24.93
2022-09-04T00:34:47.407Z,232.63
2022-09-04T00:37:21.673Z,82.97
2022-09-04T00:39:55.203Z,127.77
2022-09-04T00:42:45.596Z,27.37
2022-09-04T00:45:34.875Z,21.20
2022-09-04T00:48:13.455Z,22.37
2022-09-04T00:51:04.220Z,23.33
2022-09-04T00:53:47.183Z,24.20
2022-09-04T00:56:42.452Z,23.20
2022-09-04T00:59:20.467Z,23.73
2022-09-04T01:01:56.186Z,24.90
2022-09-04T01:04:37.838Z,34.00
2022-09-04T01:07:25.115Z,288.83
2022-09-04T01:10:15.227Z,300.43
2022-09-04T01:12:51.509Z,170.73
2022-09-04T01:15:27.861Z,206.03
2022-09-04T01:18:05.693Z,101.77
2022-09-04T01:20:54.730Z,20.03
2022-09-04T01:23:46.319Z,21.73
2022-09-04T01:26:24.232Z,19.80
2022-09-04T01:29:07.606Z,15.87
2022-09-04T01:31:45.976Z,16.70
2022-09-04T01:34:34.266Z,22.17
2022-09-04T01:37:16.269Z,19.07
2022-09-04T01:39:50.350Z,44.67
2022-09-04T01:42:28.780Z,14.53
2022-09-04T01:44:57.394Z,13.30
2022-09-04T01:47:31.562Z,14.10
2022-09-04T01:50:04.983Z,13.17
2022-09-04T01:52:42.917Z,14.70
2022-09-04T01:55:31.004Z,15.50
2022-09-04T01:58:13.189Z,13.70
2022-09-04T02:00:50.834Z,15.10
2022-09-04T02:03:31.916Z,13.43
2022-09-04T02:06:09.965Z,12.67
2022-09-04T02:08:56.861Z,13.43
2022-09-04T02:11:29.623Z,13.47
2022-09-04T02:14:11.858Z,13.20
2022-09-04T02:16:47.916Z,14.67
2022-09-04T02:19:25.342Z,12.10
2022-09-04T02:22:03.172Z,13.07
2022-09-04T02:24:39.374Z,13.13
2022-09-04T02:27:14.417Z,13.20
2022-09-04T02:29:54.730Z,13.03
2022-09-04T02:32:32.945Z,12.33
2022-09-04T02:35:08.539Z,13.03
2022-09-04T02:37:47.821Z,14.13
2022-09-04T02:40:20.489Z,13.70
2022-09-04T02:43:01.239Z,14.27
2022-09-04T02:45:38.559Z,13.90
2022-09-04T02:48:14.443Z,12.53
2022-09-04T02:50:58.094Z,14.00
2022-09-04T02:53:34.099Z,13.37
2022-09-04T02:56:24.589Z,12.43
2022-09-04T02:59:08.560Z,13.87
2022-09-04T03:01:49.196Z,14.50
2022-09-04T03:04:26.436Z,13.40
2022-09-04T03:07:00.986Z,14.20
2022-09-04T03:09:34.438Z,13.27
2022-09-04T03:12:07.793Z,14.50
2022-09-04T03:14:44.266Z,14.67
2022-09-04T03:17:23.215Z,15.40
2022-09-04T03:20:00.052Z,12.93
2022-09-04T03:22:34.815Z,12.53
2022-09-04T03:25:11.198Z,13.27
2022-09-04T03:27:40.250Z,12.90
2022-09-04T03:30:11.360Z,12.63
2022-09-04T03:32:53.296Z,15.03
2022-09-04T03:35:31.413Z,15.97
2022-09-04T03:38:19.416Z,14.10
2022-09-04T03:41:05.674Z,16.63
2022-09-04T03:43:47.775Z,14.80
2022-09-04T03:46:28.246Z,14.20
2022-09-04T03:49:12.409Z,15.33
2022-09-04T03:51:53.442Z,14.10
2022-09-04T03:54:36.166Z,14.20
2022-09-04T03:57:19.982Z,13.97
2022-09-04T04:00:07.836Z,14.33
2022-09-04T04:02:52.039Z,12.57
2022-09-04T04:05:29.602Z,13.57
2022-09-04T04:08:28.046Z,15.83
2022-09-04T04:11:08.051Z,13.10
2022-09-04T04:14:04.763Z,14.80
2022-09-04T04:16:55.854Z,16.60
2022-09-04T04:19:37.046Z,15.87
2022-09-04T04:22:30.871Z,15.90
2022-09-04T04:25:25.608Z,13.87
2022-09-04T04:28:09.447Z,15.10
2022-09-04T04:30:47.341Z,14.47
2022-09-04T04:33:42.688Z,14.63
2022-09-04T04:36:20.957Z,14.77
2022-09-04T04:39:04.526Z,14.17
2022-09-04T04:42:05.948Z,15.40
2022-09-04T04:45:07.635Z,13.30
2022-09-04T04:47:54.060Z,13.93
2022-09-04T04:50:29.522Z,14.47
2022-09-04T04:53:07.214Z,14.07
2022-09-04T04:55:50.598Z,14.43
2022-09-04T04:58:45.407Z,15.73
2022-09-04T05:01:29.955Z,14.53
2022-09-04T05:04:09.442Z,20.67
2022-09-04T05:06:43.088Z,17.37
2022-09-04T05:09:17.642Z,18.27
2022-09-04T05:11:58.388Z,21.70
2022-09-04T05:14:44.468Z,23.03
2022-09-04T05:17:23.898Z,24.33
2022-09-04T05:20:00.635Z,26.03
2022-09-04T05:22:37.876Z,26.63
2022-09-04T05:25:15.045Z,27.70
2022-09-04T05:28:04.562Z,26.93
2022-09-04T05:30:44.100Z,24.63
2022-09-04T05:33:21.401Z,24.43
2022-09-04T05:35:56.456Z,22.83
2022-09-04T05:38:35.213Z,21.00
2022-09-04T05:41:08.993Z,18.13
2022-09-04T05:43:55.362Z,18.17
2022-09-04T05:46:42.275Z,16.50
2022-09-04T05:49:23.023Z,16.20
2022-09-04T05:52:21.875Z,17.50
2022-09-04T05:55:32.118Z,15.80
2022-09-04T05:58:26.110Z,16.13
2022-09-04T06:01:08.659Z,15.60
2022-09-04T06:04:14.835Z,16.27
2022-09-04T06:06:55.432Z,17.13
2022-09-04T06:09:40.933Z,17.53
2022-09-04T06:12:29.149Z,19.63
2022-09-04T06:15:15.796Z,20.00
2022-09-04T06:18:09.225Z,18.13
2022-09-04T06:20:50.243Z,17.37
2022-09-04T06:23:38.269Z,134.07
2022-09-04T06:26:29.214Z,42.30
2022-09-04T06:29:16.809Z,19.20
2022-09-04T06:32:06.852Z,16.07
2022-09-04T06:34:53.129Z,16.83
2022-09-04T06:37:33.595Z,16.10
2022-09-04T06:40:20.553Z,17.17
2022-09-04T06:43:01.324Z,16.37
2022-09-04T06:45:42.321Z,16.47
2022-09-04T06:48:19.959Z,16.50
2022-09-04T06:51:01.652Z,136.55
2022-09-04T06:53:42.837Z,34.47
2022-09-04T06:56:25.063Z,22.03
2022-09-04T06:59:15.021Z,20.35
2022-09-04T07:02:00.671Z,16.00
2022-09-04T07:04:45.993Z,14.85
2022-09-04T07:07:25.157Z,16.13
2022-09-04T07:10:01.482Z,13.90
2022-09-04T07:12:51.804Z,13.63
2022-09-04T07:15:47.541Z,14.93
2022-09-04T07:18:39.402Z,98.53
2022-09-04T07:21:15.595Z,29.92
2022-09-04T07:23:58.999Z,25.73
2022-09-04T07:26:38.146Z,25.38
2022-09-04T07:29:29.795Z,28.30
2022-09-04T07:32:06.308Z,41.03
2022-09-04T07:34:44.142Z,387.15
2022-09-04T07:37:25.235Z,188.82
2022-09-04T07:40:08.116Z,108.85
2022-09-04T07:42:43.606Z,87.53
2022-09-04T07:45:23.389Z,129.18
2022-09-04T07:48:07.331Z,52.35
2022-09-04T07:50:40.348Z,107.60
2022-09-04T07:53:29.498Z,145.60
2022-09-04T07:56:05.122Z,256.67
2022-09-04T07:58:55.383Z,84.53
2022-09-04T08:01:46.645Z,72.47
2022-09-04T08:04:38.320Z,295.60
2022-09-04T08:07:13.545Z,284.05
2022-09-04T08:10:07.897Z,283.75
2022-09-04T08:13:22.789Z,320.92
2022-09-04T08:16:06.557Z,124.72
2022-09-04T08:19:03.481Z,239.90
2022-09-04T08:21:35.678Z,363.00
2022-09-04T08:24:42.703Z,376.52
2022-09-04T08:27:20.483Z,440.33
2022-09-04T08:30:10.314Z,517.65
2022-09-04T08:33:01.216Z,495.90
2022-09-04T08:35:34.673Z,406.02
2022-09-04T08:38:20.546Z,438.38
2022-09-04T08:41:33.476Z,356.52
2022-09-04T08:44:38.361Z,310.10
2022-09-04T08:47:37.663Z,12.55
2022-09-04T08:50:31.983Z,11.27
2022-09-04T08:53:47.166Z,11.90
2022-09-04T08:56:27.474Z,12.70
2022-09-04T08:59:31.697Z,11.38
2022-09-04T09:02:32.877Z,12.65
2022-09-04T09:05:27.157Z,11.95
2022-09-04T09:08:31.890Z,13.75
2022-09-04T09:11:28.847Z,12.50
2022-09-04T09:14:34.521Z,12.10
2022-09-04T09:17:13.763Z,12.10
2022-09-04T09:19:53.708Z,11.68
2022-09-04T09:22:40.006Z,12.38
2022-09-04T09:25:21.222Z,12.68
2022-09-04T09:28:37.321Z,12.27
2022-09-04T09:31:40.216Z,14.93
2022-09-04T09:34:49.526Z,16.17
2022-09-04T09:37:45.103Z,14.57
2022-09-04T09:40:39.734Z,16.90
2022-09-04T09:43:42.280Z,20.98
2022-09-04T09:46:50.219Z,18.88
2022-09-04T09:49:48.807Z,17.95
2022-09-04T09:52:45.434Z,17.45
2022-09-04T09:55:56.103Z,19.88
2022-09-04T09:59:09.921Z,22.02
2022-09-04T10:02:01.324Z,19.90
2022-09-04T10:05:10.852Z,13.88
2022-09-04T10:08:12.724Z,11.23
2022-09-04T10:11:03.703Z,13.85
2022-09-04T10:14:07.195Z,13.80
2022-09-04T10:17:17.283Z,15.88
2022-09-04T10:20:23.756Z,15.32
2022-09-04T10:23:21.108Z,14.98
2022-09-04T10:26:13.452Z,17.27
2022-09-04T10:29:12.670Z,14.68
2022-09-04T10:31:57.815Z,18.85
2022-09-04T10:34:47.872Z,20.00
2022-09-04T10:37:32.234Z,22.35
2022-09-04T10:40:32.369Z,159.32
2022-09-04T10:43:24.860Z,24.30
2022-09-04T10:46:20.695Z,23.00
2022-09-04T10:49:21.479Z,26.50
2022-09-04T10:52:18.353Z,22.92
2022-09-04T10:55:08.262Z,13.07
2022-09-04T10:58:05.996Z,19.88
2022-09-04T11:00:50.297Z,19.45
2022-09-04T11:03:45.118Z,15.88
2022-09-04T11:06:40.596Z,14.02
2022-09-04T11:09:44.227Z,14.90
2022-09-04T11:12:41.698Z,19.35
2022-09-04T11:15:35.120Z,139.00
2022-09-04T11:18:34.950Z,17.60
2022-09-04T11:21:35.345Z,19.15
2022-09-04T11:25:00.165Z,97.38
2022-09-04T11:28:01.852Z,21.73
2022-09-04T11:30:39.540Z,20.25
2022-09-04T11:33:55.324Z,14.57
2022-09-04T11:36:51.207Z,14.68
2022-09-04T11:39:52.475Z,15.00
2022-09-04T11:42:35.567Z,14.27
2022-09-04T11:45:32.665Z,14.20
2022-09-04T11:48:24.687Z,15.07
2022-09-04T11:51:40.846Z,15.75
2022-09-04T11:54:30.940Z,13.30
2022-09-04T11:57:15.072Z,15.82
2022-09-04T12:00:09.294Z,14.43
2022-09-04T12:03:08.161Z,13.23
2022-09-04T12:06:01.002Z,12.75
2022-09-04T12:09:00.359Z,12.63
2022-09-04T12:12:21.353Z,14.35
2022-09-04T12:15:18.303Z,11.27
2022-09-04T12:18:22.546Z,16.52
2022-09-04T12:21:26.919Z,18.58
2022-09-04T12:24:20.536Z,25.05
2022-09-04T12:27:21.813Z,15.38
2022-09-04T12:30:07.889Z,18.15
2022-09-04T12:33:26.871Z,12.50
2022-09-04T12:36:26.667Z,18.10
2022-09-04T12:39:16.398Z,12.45
2022-09-04T12:41:55.448Z,10.65
2022-09-04T12:44:35.988Z,137.97
2022-09-04T12:47:23.558Z,13.32
2022-09-04T12:50:28.451Z,175.68
2022-09-04T12:53:21.129Z,16.40
2022-09-04T12:56:03.305Z,13.00
2022-09-04T12:58:52.471Z,14.13
2022-09-04T13:01:32.539Z,18.20
2022-09-04T13:04:13.252Z,17.58
2022-09-04T13:06:53.529Z,19.88
2022-09-04T13:09:32.620Z,29.40
2022-09-04T13:12:14.228Z,32.40
2022-09-04T13:15:03.093Z,33.42
2022-09-04T13:17:43.819Z,42.42
2022-09-04T13:20:22.810Z,43.38
2022-09-04T13:23:11.079Z,44.35
2022-09-04T13:25:53.480Z,54.25
2022-09-04T13:28:30.551Z,58.75
2022-09-04T13:31:09.824Z,53.35
2022-09-04T13:33:51.332Z,48.33
2022-09-04T13:36:35.392Z,43.78
2022-09-04T13:39:36.310Z,47.80
2022-09-04T13:42:31.498Z,30.63
2022-09-04T13:45:06.372Z,40.30
2022-09-04T13:47:45.207Z,30.90
2022-09-04T13:50:25.524Z,26.77
2022-09-04T13:53:00.134Z,30.85
2022-09-04T13:55:32.663Z,42.42
2022-09-04T13:58:11.183Z,37.28
2022-09-04T14:00:46.150Z,43.58
2022-09-04T14:03:32.365Z,40.65
2022-09-04T14:06:04.450Z,41.15
2022-09-04T14:08:39.620Z,42.53
2022-09-04T14:11:26.295Z,45.45
2022-09-04T14:14:15.970Z,36.25
2022-09-04T14:16:44.692Z,45.20
2022-09-04T14:19:36.025Z,52.72
2022-09-04T14:22:19.713Z,204.65
2022-09-04T14:24:58.316Z,248.35
2022-09-04T14:27:38.197Z,47.63
2022-09-04T14:30:09.054Z,45.63
2022-09-04T14:32:57.942Z,45.17
2022-09-04T14:35:35.409Z,190.02
2022-09-04T14:38:41.388Z,44.30
2022-09-04T14:41:35.939Z,47.88
2022-09-04T14:44:27.296Z,48.33
2022-09-04T14:47:07.604Z,50.10
2022-09-04T14:49:47.035Z,48.33
2022-09-04T14:52:20.062Z,55.17
2022-09-04T14:54:54.079Z,54.35
2022-09-04T14:57:30.225Z,50.95
2022-09-04T15:00:06.730Z,51.35
2022-09-04T15:02:42.481Z,41.90
2022-09-04T15:05:21.357Z,46.08
2022-09-04T15:08:00.044Z,44.03
2022-09-04T15:10:50.744Z,158.63
2022-09-04T15:13:48.939Z,39.25
2022-09-04T15:16:24.701Z,48.00
2022-09-04T15:18:59.165Z,49.50
2022-09-04T15:21:36.191Z,44.28
2022-09-04T15:24:26.193Z,116.75
2022-09-04T15:27:00.603Z,36.45
2022-09-04T15:29:38.823Z,40.78
2022-09-04T15:32:13.899Z,39.20
2022-09-04T15:34:43.282Z,31.33
2022-09-04T15:37:22.418Z,161.55
2022-09-04T15:40:02.608Z,31.08
2022-09-04T15:42:47.790Z,28.85
2022-09-04T15:45:24.243Z,27.33
2022-09-04T15:48:17.916Z,27.95
2022-09-04T15:51:01.285Z,30.80
2022-09-04T15:53:33.841Z,29.70
2022-09-04T15:56:10.861Z,23.55
2022-09-04T15:58:53.375Z,26.15
2022-09-04T16:01:28.623Z,23.08
2022-09-04T16:04:07.461Z,16.67
2022-09-04T16:06:47.015Z,20.52
2022-09-04T16:09:25.933Z,125.45
2022-09-04T16:12:04.523Z,30.88
2022-09-04T16:14:44.619Z,14.63
2022-09-04T16:17:21.548Z,12.10
2022-09-04T16:19:57.971Z,13.48
2022-09-04T16:22:36.581Z,14.98
2022-09-04T16:25:11.311Z,12.48
2022-09-04T16:27:48.899Z,14.00
2022-09-04T16:30:33.198Z,13.43
2022-09-04T16:33:04.496Z,13.00
2022-09-04T16:35:37.525Z,11.85
2022-09-04T16:38:15.397Z,9.30
2022-09-04T16:40:50.154Z,9.65
2022-09-04T16:43:27.175Z,11.65
2022-09-04T16:46:14.251Z,7.93
2022-09-04T16:48:52.005Z,8.15
2022-09-04T16:51:40.114Z,86.20
2022-09-04T16:54:18.551Z,16.70
2022-09-04T16:56:53.685Z,11.38
2022-09-04T16:59:46.102Z,9.63
2022-09-04T17:02:29.393Z,10.25
2022-09-04T17:05:23.061Z,9.52
2022-09-04T17:08:04.608Z,9.30
2022-09-04T17:10:41.639Z,8.13
2022-09-04T17:13:18.290Z,8.43
2022-09-04T17:15:58.132Z,9.40
2022-09-04T17:18:29.367Z,7.93
2022-09-04T17:25:19.589Z,12.07
2022-09-04T17:29:01.229Z,10.63
2022-09-04T17:29:10.271Z,8.75
2022-09-04T17:29:49.379Z,7.47
2022-09-04T17:33:17.805Z,10.13
2022-09-04T17:40:36.992Z,10.40
2022-09-04T17:40:48.845Z,11.48
2022-09-04T17:41:31.239Z,7.13
2022-09-04T17:44:20.228Z,11.32
2022-09-04T17:46:55.994Z,9.85
2022-09-04T17:49:34.730Z,10.77
2022-09-04T17:52:09.831Z,9.05
2022-09-04T17:54:49.114Z,9.48
2022-09-04T17:57:26.797Z,10.02
2022-09-04T18:00:05.074Z,9.75
2022-09-04T18:02:42.683Z,9.30
2022-09-04T18:05:20.172Z,7.60
2022-09-04T18:08:09.712Z,9.73
2022-09-04T18:10:52.081Z,9.07
2022-09-04T18:13:37.791Z,8.00
2022-09-04T18:16:15.686Z,10.30
2022-09-04T18:18:48.262Z,9.68
2022-09-04T18:21:23.103Z,10.52
2022-09-04T18:24:03.122Z,9.43
2022-09-04T18:26:42.461Z,8.27
2022-09-04T18:32:25.268Z,9.50
2022-09-04T18:37:07.005Z,13.07
2022-09-04T18:37:16.826Z,17.10
2022-09-04T18:38:39.048Z,9.60
2022-09-04T18:47:13.400Z,9.25
2022-09-04T18:50:30.330Z,8.57
2022-09-04T18:50:38.906Z,76.10
2022-09-04T18:50:51.326Z,10.95
2022-09-04T18:53:15.305Z,8.65
2022-09-04T18:55:48.202Z,31.30
2022-09-04T18:58:42.848Z,8.15
2022-09-04T19:01:20.366Z,9.40
2022-09-04T19:03:59.934Z,7.03
2022-09-04T19:06:35.018Z,7.32
2022-09-04T19:09:12.741Z,7.95
2022-09-04T19:11:48.067Z,10.95
2022-09-04T19:14:20.584Z,8.52
2022-09-04T19:16:54.295Z,9.52
2022-09-04T19:19:30.235Z,7.68
2022-09-04T19:22:07.547Z,8.52
2022-09-04T19:24:43.256Z,8.02
2022-09-04T19:27:27.703Z,7.65
2022-09-04T19:30:18.249Z,72.47
2022-09-04T19:33:06.536Z,7.68
2022-09-04T19:35:39.364Z,7.60
2022-09-04T19:42:33.961Z,9.10
2022-09-04T19:46:03.816Z,13.55
2022-09-04T19:46:17.920Z,10.30
2022-09-04T19:47:04.668Z,7.88
2022-09-04T19:53:20.165Z,9.73
2022-09-04T19:53:30.876Z,9.15
2022-09-04T19:55:41.610Z,9.38
2022-09-04T19:58:12.072Z,7.55
2022-09-04T20:00:48.571Z,8.75
2022-09-04T20:03:29.407Z,8.05
2022-09-04T20:06:21.153Z,6.95
2022-09-04T20:08:56.428Z,8.98
2022-09-04T20:11:35.300Z,7.15
2022-09-04T20:14:15.334Z,9.30
2022-09-04T20:16:53.299Z,8.48
2022-09-04T20:19:28.657Z,7.57
2022-09-04T20:22:03.147Z,7.68
2022-09-04T20:24:41.007Z,8.52
2022-09-04T20:27:16.089Z,8.05
2022-09-04T20:29:54.794Z,7.07
2022-09-04T20:32:29.214Z,9.25
2022-09-04T20:35:13.518Z,6.97
2022-09-04T20:37:51.593Z,7.63
2022-09-04T20:40:31.769Z,6.00
2022-09-04T20:43:13.342Z,7.82
2022-09-04T20:49:52.401Z,6.97
2022-09-04T20:52:57.007Z,8.38
2022-09-04T20:52:59.315Z,6.78
2022-09-04T20:55:01.612Z,7.47
2022-09-04T21:03:09.940Z,7.60
2022-09-04T21:03:12.997Z,9.07
2022-09-04T21:03:35.749Z,6.90
2022-09-04T21:06:25.441Z,6.22
2022-09-04T21:09:06.060Z,26.38
2022-09-04T21:11:42.049Z,6.03
2022-09-04T21:14:18.124Z,8.98
2022-09-04T21:17:35.204Z,7.78
2022-09-04T21:20:31.319Z,6.80
2022-09-04T21:23:34.733Z,6.57
2022-09-04T21:26:14.890Z,6.18
2022-09-04T21:29:11.311Z,6.57
2022-09-04T21:32:21.129Z,5.78
2022-09-04T21:35:00.054Z,7.03
2022-09-04T21:37:39.930Z,6.63
2022-09-04T21:40:50.471Z,6.45
2022-09-04T21:43:55.827Z,5.90
2022-09-04T21:46:53.504Z,4.88
2022-09-04T21:50:16.860Z,5.53
2022-09-04T21:53:12.720Z,6.25
2022-09-04T21:57:11.745Z,5.22
2022-09-04T22:02:37.305Z,4.07
2022-09-04T22:02:39.686Z,4.63
2022-09-04T22:05:16.289Z,5.18
2022-09-04T22:10:14.053Z,5.30
2022-09-04T22:13:42.497Z,6.38
2022-09-04T22:13:51.475Z,5.97
2022-09-04T22:16:37.444Z,5.65
2022-09-04T22:19:20.814Z,5.88
2022-09-04T22:22:04.138Z,7.27
2022-09-04T22:25:02.134Z,7.38
2022-09-04T22:28:10.151Z,6.25
2022-09-04T22:30:56.935Z,6.45
2022-09-04T22:34:16.834Z,6.47
2022-09-04T22:37:07.898Z,5.72
2022-09-04T22:40:17.406Z,6.68
2022-09-04T22:42:51.830Z,6.30
2022-09-04T22:45:48.978Z,4.55
2022-09-04T22:48:47.868Z,5.57
2022-09-04T22:51:46.693Z,4.90
2022-09-04T22:54:40.288Z,4.17
2022-09-04T22:57:12.831Z,5.30
2022-09-04T23:00:09.656Z,4.33
2022-09-04T23:03:09.208Z,4.53
2022-09-04T23:08:22.929Z,4.40
2022-09-04T23:13:45.050Z,5.80
2022-09-04T23:13:56.781Z,5.57
2022-09-04T23:15:52.647Z,5.37
2022-09-04T23:24:37.813Z,5.10
2022-09-04T23:26:42.219Z,7.00
2022-09-04T23:26:42.225Z,8.87
2022-09-04T23:28:15.497Z,8.67
2022-09-04T23:31:19.770Z,8.10
2022-09-04T23:34:10.255Z,9.97
2022-09-04T23:37:03.206Z,9.07
2022-09-04T23:40:04.981Z,9.07
2022-09-04T23:43:07.584Z,9.63
2022-09-04T23:46:01.887Z,9.73
2022-09-04T23:49:06.621Z,9.83
2022-09-04T23:51:50.441Z,11.33
2022-09-04T23:54:49.298Z,10.70
2022-09-04T23:57:26.587Z,15.30
